sensor_id;sensor_type;location;lat;lon;timestamp;P1;durP1;ratioP1;P2;durP2;ratioP2
41263;SDS011;26998;48.714;9.414;2023-07-16T00:02:02;7.45;;;5.63;;
41263;SDS011;26998;48.714;9.414;2023-07-16T00:04:30;6.22;;;5.05;;
41263;SDS011;26998;48.714;9.414;2023-07-16T00:06:59;7.00;;;5.70;;
41263;SDS011;26998;48.714;9.414;2023-07-16T00:09:28;5.45;;;4.80;;
41263;SDS011;26998;48.714;9.414;2023-07-16T00:11:55;5.63;;;4.40;;
41263;SDS011;26998;48.714;9.414;2023-07-16T00:14:22;6.57;;;4.70;;
41263;SDS011;26998;48.714;9.414;2023-07-16T00:16:50;15.57;;;5.68;;
41263;SDS011;26998;48.714;9.414;2023-07-16T00:19:16;7.75;;;4.45;;
41263;SDS011;26998;48.714;9.414;2023-07-16T00:21:43;5.75;;;4.70;;
41263;SDS011;26998;48.714;9.414;2023-07-16T00:24:10;5.13;;;4.53;;
41263;SDS011;26998;48.714;9.414;2023-07-16T00:26:36;6.43;;;4.25;;
41263;SDS011;26998;48.714;9.414;2023-07-16T00:29:04;4.32;;;3.88;;
41263;SDS011;26998;48.714;9.414;2023-07-16T00:31:31;7.95;;;4.13;;
41263;SDS011;26998;48.714;9.414;2023-07-16T00:33:57;7.38;;;3.85;;
41263;SDS011;26998;48.714;9.414;2023-07-16T00:36:24;4.60;;;3.90;;
41263;SDS011;26998;48.714;9.414;2023-07-16T00:38:50;3.95;;;3.60;;
41263;SDS011;26998;48.714;9.414;2023-07-16T00:41:17;3.97;;;3.63;;
41263;SDS011;26998;48.714;9.414;2023-07-16T00:43:44;6.03;;;3.80;;
41263;SDS011;26998;48.714;9.414;2023-07-16T00:46:10;5.53;;;3.70;;
41263;SDS011;26998;48.714;9.414;2023-07-16T00:48:39;5.97;;;3.53;;
41263;SDS011;26998;48.714;9.414;2023-07-16T00:51:07;4.93;;;3.22;;
41263;SDS011;26998;48.714;9.414;2023-07-16T00:53:34;4.65;;;3.38;;
41263;SDS011;26998;48.714;9.414;2023-07-16T00:56:01;5.35;;;3.00;;
41263;SDS011;26998;48.714;9.414;2023-07-16T00:58:28;5.82;;;3.17;;
41263;SDS011;26998;48.714;9.414;2023-07-16T01:00:55;3.95;;;2.80;;
41263;SDS011;26998;48.714;9.414;2023-07-16T01:03:21;4.15;;;3.00;;
41263;SDS011;26998;48.714;9.414;2023-07-16T01:05:55;3.63;;;3.00;;
41263;SDS011;26998;48.714;9.414;2023-07-16T01:08:31;5.05;;;3.10;;
41263;SDS011;26998;48.714;9.414;2023-07-16T01:11:02;4.13;;;3.17;;
41263;SDS011;26998;48.714;9.414;2023-07-16T01:15:59;3.65;;;2.60;;
41263;SDS011;26998;48.714;9.414;2023-07-16T01:18:26;3.15;;;2.60;;
41263;SDS011;26998;48.714;9.414;2023-07-16T01:20:53;5.72;;;3.08;;
41263;SDS011;26998;48.714;9.414;2023-07-16T01:23:42;3.85;;;3.17;;
41263;SDS011;26998;48.714;9.414;2023-07-16T01:26:28;3.53;;;2.88;;
41263;SDS011;26998;48.714;9.414;2023-07-16T01:31:54;5.35;;;2.92;;
41263;SDS011;26998;48.714;9.414;2023-07-16T01:34:24;5.45;;;2.70;;
41263;SDS011;26998;48.714;9.414;2023-07-16T01:36:51;3.35;;;2.80;;
41263;SDS011;26998;48.714;9.414;2023-07-16T01:39:18;3.47;;;3.00;;
41263;SDS011;26998;48.714;9.414;2023-07-16T01:41:45;3.22;;;2.78;;
41263;SDS011;26998;48.714;9.414;2023-07-16T01:44:12;3.70;;;2.78;;
41263;SDS011;26998;48.714;9.414;2023-07-16T01:46:38;5.22;;;3.78;;
41263;SDS011;26998;48.714;9.414;2023-07-16T01:49:05;3.20;;;2.90;;
41263;SDS011;26998;48.714;9.414;2023-07-16T01:51:32;3.90;;;3.13;;
41263;SDS011;26998;48.714;9.414;2023-07-16T01:54:00;4.72;;;2.97;;
41263;SDS011;26998;48.714;9.414;2023-07-16T01:56:27;3.78;;;3.38;;
41263;SDS011;26998;48.714;9.414;2023-07-16T01:58:55;3.38;;;2.80;;
41263;SDS011;26998;48.714;9.414;2023-07-16T02:01:22;3.50;;;2.97;;
41263;SDS011;26998;48.714;9.414;2023-07-16T02:03:48;5.03;;;3.08;;
41263;SDS011;26998;48.714;9.414;2023-07-16T02:06:15;4.15;;;2.67;;
41263;SDS011;26998;48.714;9.414;2023-07-16T02:08:42;5.63;;;3.13;;
41263;SDS011;26998;48.714;9.414;2023-07-16T02:11:09;4.53;;;3.65;;
41263;SDS011;26998;48.714;9.414;2023-07-16T02:13:35;5.10;;;3.05;;
41263;SDS011;26998;48.714;9.414;2023-07-16T02:16:02;4.22;;;3.42;;
41263;SDS011;26998;48.714;9.414;2023-07-16T02:18:28;5.10;;;3.85;;
41263;SDS011;26998;48.714;9.414;2023-07-16T02:20:55;7.20;;;3.63;;
41263;SDS011;26998;48.714;9.414;2023-07-16T02:23:22;7.05;;;3.90;;
41263;SDS011;26998;48.714;9.414;2023-07-16T02:25:49;7.57;;;3.80;;
41263;SDS011;26998;48.714;9.414;2023-07-16T02:28:16;5.22;;;4.18;;
41263;SDS011;26998;48.714;9.414;2023-07-16T02:30:43;7.95;;;4.40;;
41263;SDS011;26998;48.714;9.414;2023-07-16T02:33:09;8.15;;;4.43;;
41263;SDS011;26998;48.714;9.414;2023-07-16T02:35:36;5.57;;;3.83;;
41263;SDS011;26998;48.714;9.414;2023-07-16T02:38:02;6.40;;;3.30;;
41263;SDS011;26998;48.714;9.414;2023-07-16T02:40:29;7.18;;;3.90;;
41263;SDS011;26998;48.714;9.414;2023-07-16T02:42:55;5.70;;;3.55;;
41263;SDS011;26998;48.714;9.414;2023-07-16T02:45:22;4.13;;;3.05;;
41263;SDS011;26998;48.714;9.414;2023-07-16T02:47:48;4.50;;;3.35;;
41263;SDS011;26998;48.714;9.414;2023-07-16T02:50:15;5.78;;;3.45;;
41263;SDS011;26998;48.714;9.414;2023-07-16T02:52:42;4.95;;;3.03;;
41263;SDS011;26998;48.714;9.414;2023-07-16T02:55:08;3.75;;;2.20;;
41263;SDS011;26998;48.714;9.414;2023-07-16T02:57:35;2.85;;;1.70;;
41263;SDS011;26998;48.714;9.414;2023-07-16T03:00:02;3.00;;;2.00;;
41263;SDS011;26998;48.714;9.414;2023-07-16T03:02:29;2.92;;;2.35;;
41263;SDS011;26998;48.714;9.414;2023-07-16T03:04:56;6.10;;;2.30;;
41263;SDS011;26998;48.714;9.414;2023-07-16T03:07:22;5.63;;;2.30;;
41263;SDS011;26998;48.714;9.414;2023-07-16T03:09:49;5.45;;;2.20;;
41263;SDS011;26998;48.714;9.414;2023-07-16T03:12:15;4.70;;;3.15;;
41263;SDS011;26998;48.714;9.414;2023-07-16T03:14:42;2.47;;;2.03;;
41263;SDS011;26998;48.714;9.414;2023-07-16T03:17:09;3.20;;;1.80;;
41263;SDS011;26998;48.714;9.414;2023-07-16T03:19:36;2.55;;;1.95;;
41263;SDS011;26998;48.714;9.414;2023-07-16T03:22:02;6.28;;;2.20;;
41263;SDS011;26998;48.714;9.414;2023-07-16T03:24:29;5.90;;;2.45;;
41263;SDS011;26998;48.714;9.414;2023-07-16T03:26:56;3.25;;;1.50;;
41263;SDS011;26998;48.714;9.414;2023-07-16T03:29:41;1.60;;;1.50;;
41263;SDS011;26998;48.714;9.414;2023-07-16T03:32:08;3.38;;;1.85;;
41263;SDS011;26998;48.714;9.414;2023-07-16T03:34:35;10.55;;;1.90;;
41263;SDS011;26998;48.714;9.414;2023-07-16T03:37:01;3.63;;;1.80;;
41263;SDS011;26998;48.714;9.414;2023-07-16T03:39:28;6.68;;;1.75;;
41263;SDS011;26998;48.714;9.414;2023-07-16T03:41:54;6.68;;;2.50;;
41263;SDS011;26998;48.714;9.414;2023-07-16T03:44:21;4.70;;;2.00;;
41263;SDS011;26998;48.714;9.414;2023-07-16T03:46:47;4.38;;;2.10;;
41263;SDS011;26998;48.714;9.414;2023-07-16T03:49:14;3.30;;;1.63;;
41263;SDS011;26998;48.714;9.414;2023-07-16T03:51:41;3.75;;;2.00;;
41263;SDS011;26998;48.714;9.414;2023-07-16T03:54:07;6.38;;;2.05;;
41263;SDS011;26998;48.714;9.414;2023-07-16T03:56:34;4.53;;;1.95;;
41263;SDS011;26998;48.714;9.414;2023-07-16T03:59:00;3.60;;;1.77;;
41263;SDS011;26998;48.714;9.414;2023-07-16T04:01:27;3.50;;;1.88;;
41263;SDS011;26998;48.714;9.414;2023-07-16T04:03:54;4.80;;;1.77;;
41263;SDS011;26998;48.714;9.414;2023-07-16T04:06:20;5.10;;;1.95;;
41263;SDS011;26998;48.714;9.414;2023-07-16T04:08:47;4.22;;;1.60;;
41263;SDS011;26998;48.714;9.414;2023-07-16T04:11:13;5.15;;;2.47;;
41263;SDS011;26998;48.714;9.414;2023-07-16T04:13:40;2.10;;;1.58;;
41263;SDS011;26998;48.714;9.414;2023-07-16T04:16:08;6.65;;;2.00;;
41263;SDS011;26998;48.714;9.414;2023-07-16T04:18:35;4.15;;;1.55;;
41263;SDS011;26998;48.714;9.414;2023-07-16T04:21:02;1.60;;;1.48;;
41263;SDS011;26998;48.714;9.414;2023-07-16T04:23:29;3.60;;;1.75;;
41263;SDS011;26998;48.714;9.414;2023-07-16T04:25:55;3.30;;;1.90;;
41263;SDS011;26998;48.714;9.414;2023-07-16T04:28:22;5.28;;;2.10;;
41263;SDS011;26998;48.714;9.414;2023-07-16T04:30:49;4.20;;;1.60;;
41263;SDS011;26998;48.714;9.414;2023-07-16T04:33:16;4.10;;;2.00;;
41263;SDS011;26998;48.714;9.414;2023-07-16T04:35:42;3.25;;;1.60;;
41263;SDS011;26998;48.714;9.414;2023-07-16T04:38:09;3.85;;;1.67;;
41263;SDS011;26998;48.714;9.414;2023-07-16T04:40:36;8.82;;;2.38;;
41263;SDS011;26998;48.714;9.414;2023-07-16T04:43:03;9.18;;;2.13;;
41263;SDS011;26998;48.714;9.414;2023-07-16T04:45:29;6.88;;;1.90;;
41263;SDS011;26998;48.714;9.414;2023-07-16T04:47:56;4.07;;;1.90;;
41263;SDS011;26998;48.714;9.414;2023-07-16T04:50:23;3.45;;;1.98;;
41263;SDS011;26998;48.714;9.414;2023-07-16T04:52:52;2.67;;;1.60;;
41263;SDS011;26998;48.714;9.414;2023-07-16T04:55:19;6.53;;;2.22;;
41263;SDS011;26998;48.714;9.414;2023-07-16T04:57:45;2.78;;;1.60;;
41263;SDS011;26998;48.714;9.414;2023-07-16T05:00:12;4.10;;;1.65;;
41263;SDS011;26998;48.714;9.414;2023-07-16T05:02:39;1.92;;;1.50;;
41263;SDS011;26998;48.714;9.414;2023-07-16T05:05:06;4.03;;;1.52;;
41263;SDS011;26998;48.714;9.414;2023-07-16T05:07:33;2.55;;;1.60;;
41263;SDS011;26998;48.714;9.414;2023-07-16T05:10:00;1.98;;;1.50;;
41263;SDS011;26998;48.714;9.414;2023-07-16T05:12:26;5.25;;;1.70;;
41263;SDS011;26998;48.714;9.414;2023-07-16T05:14:53;3.33;;;1.90;;
41263;SDS011;26998;48.714;9.414;2023-07-16T05:17:19;5.38;;;1.75;;
41263;SDS011;26998;48.714;9.414;2023-07-16T05:19:46;4.20;;;2.00;;
41263;SDS011;26998;48.714;9.414;2023-07-16T05:22:13;6.72;;;1.63;;
41263;SDS011;26998;48.714;9.414;2023-07-16T05:24:39;6.75;;;2.40;;
41263;SDS011;26998;48.714;9.414;2023-07-16T05:27:06;4.82;;;2.10;;
41263;SDS011;26998;48.714;9.414;2023-07-16T05:29:33;4.22;;;1.70;;
41263;SDS011;26998;48.714;9.414;2023-07-16T05:31:59;3.17;;;1.65;;
41263;SDS011;26998;48.714;9.414;2023-07-16T05:34:26;5.20;;;1.75;;
41263;SDS011;26998;48.714;9.414;2023-07-16T05:36:53;4.32;;;1.70;;
41263;SDS011;26998;48.714;9.414;2023-07-16T05:39:24;3.45;;;1.88;;
41263;SDS011;26998;48.714;9.414;2023-07-16T05:41:50;5.60;;;2.00;;
41263;SDS011;26998;48.714;9.414;2023-07-16T05:44:17;4.50;;;1.63;;
41263;SDS011;26998;48.714;9.414;2023-07-16T05:46:46;5.68;;;1.80;;
41263;SDS011;26998;48.714;9.414;2023-07-16T05:49:13;4.13;;;1.98;;
41263;SDS011;26998;48.714;9.414;2023-07-16T05:51:41;5.97;;;1.88;;
41263;SDS011;26998;48.714;9.414;2023-07-16T05:54:08;5.00;;;1.45;;
41263;SDS011;26998;48.714;9.414;2023-07-16T05:56:36;4.93;;;1.98;;
41263;SDS011;26998;48.714;9.414;2023-07-16T05:59:03;1.98;;;1.45;;
41263;SDS011;26998;48.714;9.414;2023-07-16T06:01:29;5.18;;;1.90;;
41263;SDS011;26998;48.714;9.414;2023-07-16T06:03:56;6.35;;;1.88;;
41263;SDS011;26998;48.714;9.414;2023-07-16T06:06:23;3.97;;;1.52;;
41263;SDS011;26998;48.714;9.414;2023-07-16T06:08:49;4.30;;;1.55;;
41263;SDS011;26998;48.714;9.414;2023-07-16T06:11:16;3.22;;;1.35;;
41263;SDS011;26998;48.714;9.414;2023-07-16T06:13:42;3.20;;;1.83;;
41263;SDS011;26998;48.714;9.414;2023-07-16T06:16:09;5.47;;;1.80;;
41263;SDS011;26998;48.714;9.414;2023-07-16T06:18:36;4.68;;;2.08;;
41263;SDS011;26998;48.714;9.414;2023-07-16T06:21:02;7.75;;;2.10;;
41263;SDS011;26998;48.714;9.414;2023-07-16T06:23:29;4.63;;;2.60;;
41263;SDS011;26998;48.714;9.414;2023-07-16T06:25:56;5.45;;;2.15;;
41263;SDS011;26998;48.714;9.414;2023-07-16T06:28:23;4.22;;;1.75;;
41263;SDS011;26998;48.714;9.414;2023-07-16T06:30:50;3.13;;;1.83;;
41263;SDS011;26998;48.714;9.414;2023-07-16T06:33:16;5.65;;;1.73;;
41263;SDS011;26998;48.714;9.414;2023-07-16T06:35:47;6.30;;;2.00;;
41263;SDS011;26998;48.714;9.414;2023-07-16T06:38:14;4.97;;;2.00;;
41263;SDS011;26998;48.714;9.414;2023-07-16T06:40:50;9.63;;;2.60;;
41263;SDS011;26998;48.714;9.414;2023-07-16T06:43:18;7.78;;;2.22;;
41263;SDS011;26998;48.714;9.414;2023-07-16T06:45:45;6.28;;;1.98;;
41263;SDS011;26998;48.714;9.414;2023-07-16T06:48:11;4.40;;;1.80;;
41263;SDS011;26998;48.714;9.414;2023-07-16T06:50:38;2.83;;;1.98;;
41263;SDS011;26998;48.714;9.414;2023-07-16T06:53:05;4.82;;;1.95;;
41263;SDS011;26998;48.714;9.414;2023-07-16T06:55:32;9.13;;;2.75;;
41263;SDS011;26998;48.714;9.414;2023-07-16T06:57:59;6.78;;;2.17;;
41263;SDS011;26998;48.714;9.414;2023-07-16T07:00:30;8.00;;;2.20;;
41263;SDS011;26998;48.714;9.414;2023-07-16T07:02:56;4.55;;;1.90;;
41263;SDS011;26998;48.714;9.414;2023-07-16T07:05:23;4.85;;;2.00;;
41263;SDS011;26998;48.714;9.414;2023-07-16T07:07:50;5.75;;;2.28;;
41263;SDS011;26998;48.714;9.414;2023-07-16T07:10:16;5.00;;;2.03;;
41263;SDS011;26998;48.714;9.414;2023-07-16T07:12:43;6.32;;;1.95;;
41263;SDS011;26998;48.714;9.414;2023-07-16T07:15:09;3.15;;;1.65;;
41263;SDS011;26998;48.714;9.414;2023-07-16T07:17:36;6.65;;;2.13;;
41263;SDS011;26998;48.714;9.414;2023-07-16T07:20:03;6.13;;;1.75;;
41263;SDS011;26998;48.714;9.414;2023-07-16T07:22:30;3.95;;;2.05;;
41263;SDS011;26998;48.714;9.414;2023-07-16T07:25:16;10.10;;;2.42;;
41263;SDS011;26998;48.714;9.414;2023-07-16T07:27:42;3.38;;;1.90;;
41263;SDS011;26998;48.714;9.414;2023-07-16T07:30:09;4.32;;;2.03;;
41263;SDS011;26998;48.714;9.414;2023-07-16T07:32:37;7.20;;;1.88;;
41263;SDS011;26998;48.714;9.414;2023-07-16T07:35:03;6.50;;;1.80;;
41263;SDS011;26998;48.714;9.414;2023-07-16T07:37:30;6.78;;;1.75;;
41263;SDS011;26998;48.714;9.414;2023-07-16T07:39:58;3.20;;;2.08;;
41263;SDS011;26998;48.714;9.414;2023-07-16T07:42:25;4.03;;;2.10;;
41263;SDS011;26998;48.714;9.414;2023-07-16T07:44:54;5.78;;;2.38;;
41263;SDS011;26998;48.714;9.414;2023-07-16T07:47:21;6.55;;;2.10;;
41263;SDS011;26998;48.714;9.414;2023-07-16T07:49:47;2.45;;;1.70;;
41263;SDS011;26998;48.714;9.414;2023-07-16T07:52:13;2.97;;;1.70;;
41263;SDS011;26998;48.714;9.414;2023-07-16T07:54:40;4.15;;;1.90;;
41263;SDS011;26998;48.714;9.414;2023-07-16T07:57:06;2.47;;;1.92;;
41263;SDS011;26998;48.714;9.414;2023-07-16T07:59:33;6.68;;;1.80;;
41263;SDS011;26998;48.714;9.414;2023-07-16T08:01:59;5.72;;;2.05;;
41263;SDS011;26998;48.714;9.414;2023-07-16T08:04:26;2.30;;;2.00;;
41263;SDS011;26998;48.714;9.414;2023-07-16T08:06:53;3.92;;;1.98;;
41263;SDS011;26998;48.714;9.414;2023-07-16T08:09:20;4.03;;;1.80;;
41263;SDS011;26998;48.714;9.414;2023-07-16T08:11:47;6.30;;;2.30;;
41263;SDS011;26998;48.714;9.414;2023-07-16T08:14:13;6.10;;;1.90;;
41263;SDS011;26998;48.714;9.414;2023-07-16T08:16:40;4.13;;;1.88;;
41263;SDS011;26998;48.714;9.414;2023-07-16T08:19:06;3.58;;;1.95;;
41263;SDS011;26998;48.714;9.414;2023-07-16T08:21:33;5.75;;;2.05;;
41263;SDS011;26998;48.714;9.414;2023-07-16T08:23:59;4.65;;;2.40;;
41263;SDS011;26998;48.714;9.414;2023-07-16T08:26:26;3.05;;;1.80;;
41263;SDS011;26998;48.714;9.414;2023-07-16T08:28:53;4.28;;;2.50;;
41263;SDS011;26998;48.714;9.414;2023-07-16T08:31:19;5.03;;;2.13;;
41263;SDS011;26998;48.714;9.414;2023-07-16T08:33:46;5.63;;;2.28;;
41263;SDS011;26998;48.714;9.414;2023-07-16T08:36:12;8.00;;;2.13;;
41263;SDS011;26998;48.714;9.414;2023-07-16T08:38:39;4.60;;;2.33;;
41263;SDS011;26998;48.714;9.414;2023-07-16T08:41:05;5.00;;;1.90;;
41263;SDS011;26998;48.714;9.414;2023-07-16T08:43:32;4.47;;;1.88;;
41263;SDS011;26998;48.714;9.414;2023-07-16T08:45:59;3.40;;;1.88;;
41263;SDS011;26998;48.714;9.414;2023-07-16T08:48:28;2.75;;;1.90;;
41263;SDS011;26998;48.714;9.414;2023-07-16T08:50:55;4.18;;;1.98;;
41263;SDS011;26998;48.714;9.414;2023-07-16T08:53:23;5.97;;;1.75;;
41263;SDS011;26998;48.714;9.414;2023-07-16T08:55:49;4.63;;;1.92;;
41263;SDS011;26998;48.714;9.414;2023-07-16T08:58:18;5.63;;;1.85;;
41263;SDS011;26998;48.714;9.414;2023-07-16T09:00:48;4.00;;;1.88;;
41263;SDS011;26998;48.714;9.414;2023-07-16T09:03:16;4.30;;;1.67;;
41263;SDS011;26998;48.714;9.414;2023-07-16T09:05:44;3.10;;;2.08;;
41263;SDS011;26998;48.714;9.414;2023-07-16T09:08:11;5.95;;;1.90;;
41263;SDS011;26998;48.714;9.414;2023-07-16T09:10:37;3.47;;;2.05;;
41263;SDS011;26998;48.714;9.414;2023-07-16T09:13:06;2.70;;;1.70;;
41263;SDS011;26998;48.714;9.414;2023-07-16T09:15:32;2.58;;;1.85;;
41263;SDS011;26998;48.714;9.414;2023-07-16T09:18:00;4.22;;;2.13;;
41263;SDS011;26998;48.714;9.414;2023-07-16T09:20:27;4.55;;;1.95;;
41263;SDS011;26998;48.714;9.414;2023-07-16T09:22:54;3.03;;;1.60;;
41263;SDS011;26998;48.714;9.414;2023-07-16T09:25:25;3.95;;;2.05;;
41263;SDS011;26998;48.714;9.414;2023-07-16T09:27:57;4.03;;;1.60;;
41263;SDS011;26998;48.714;9.414;2023-07-16T09:30:24;4.60;;;2.15;;
41263;SDS011;26998;48.714;9.414;2023-07-16T09:32:51;2.28;;;1.60;;
41263;SDS011;26998;48.714;9.414;2023-07-16T09:35:17;3.17;;;1.80;;
41263;SDS011;26998;48.714;9.414;2023-07-16T09:37:44;3.13;;;1.50;;
41263;SDS011;26998;48.714;9.414;2023-07-16T09:40:11;4.13;;;1.55;;
41263;SDS011;26998;48.714;9.414;2023-07-16T09:42:43;3.33;;;2.00;;
41263;SDS011;26998;48.714;9.414;2023-07-16T09:45:27;2.72;;;1.52;;
41263;SDS011;26998;48.714;9.414;2023-07-16T09:47:54;2.42;;;1.55;;
41263;SDS011;26998;48.714;9.414;2023-07-16T09:50:22;3.85;;;1.98;;
41263;SDS011;26998;48.714;9.414;2023-07-16T09:52:49;2.85;;;1.90;;
41263;SDS011;26998;48.714;9.414;2023-07-16T09:55:17;3.28;;;1.90;;
41263;SDS011;26998;48.714;9.414;2023-07-16T09:57:48;3.53;;;2.15;;
41263;SDS011;26998;48.714;9.414;2023-07-16T10:00:16;2.63;;;2.05;;
41263;SDS011;26998;48.714;9.414;2023-07-16T10:02:44;5.72;;;2.10;;
41263;SDS011;26998;48.714;9.414;2023-07-16T10:05:14;2.50;;;1.60;;
41263;SDS011;26998;48.714;9.414;2023-07-16T10:07:52;4.28;;;1.92;;
41263;SDS011;26998;48.714;9.414;2023-07-16T10:10:21;3.25;;;1.70;;
41263;SDS011;26998;48.714;9.414;2023-07-16T10:12:56;3.22;;;1.75;;
41263;SDS011;26998;48.714;9.414;2023-07-16T10:15:25;5.13;;;2.00;;
41263;SDS011;26998;48.714;9.414;2023-07-16T10:17:53;3.38;;;1.80;;
41263;SDS011;26998;48.714;9.414;2023-07-16T10:22:56;5.53;;;2.03;;
41263;SDS011;26998;48.714;9.414;2023-07-16T10:25:25;3.85;;;2.15;;
41263;SDS011;26998;48.714;9.414;2023-07-16T10:27:53;5.05;;;1.92;;
41263;SDS011;26998;48.714;9.414;2023-07-16T10:30:20;3.25;;;1.80;;
41263;SDS011;26998;48.714;9.414;2023-07-16T10:32:47;2.75;;;1.70;;
41263;SDS011;26998;48.714;9.414;2023-07-16T10:35:17;3.70;;;2.10;;
41263;SDS011;26998;48.714;9.414;2023-07-16T10:37:43;2.92;;;2.03;;
41263;SDS011;26998;48.714;9.414;2023-07-16T10:40:13;2.60;;;1.65;;
41263;SDS011;26998;48.714;9.414;2023-07-16T10:45:07;3.55;;;1.95;;
41263;SDS011;26998;48.714;9.414;2023-07-16T10:47:35;4.38;;;2.10;;
41263;SDS011;26998;48.714;9.414;2023-07-16T10:50:03;5.00;;;2.00;;
41263;SDS011;26998;48.714;9.414;2023-07-16T10:52:31;4.32;;;1.73;;
41263;SDS011;26998;48.714;9.414;2023-07-16T10:54:58;3.28;;;1.67;;
41263;SDS011;26998;48.714;9.414;2023-07-16T10:57:25;2.17;;;1.70;;
41263;SDS011;26998;48.714;9.414;2023-07-16T10:59:52;4.28;;;1.92;;
41263;SDS011;26998;48.714;9.414;2023-07-16T11:02:20;3.63;;;1.88;;
41263;SDS011;26998;48.714;9.414;2023-07-16T11:04:49;4.57;;;1.70;;
41263;SDS011;26998;48.714;9.414;2023-07-16T11:07:17;4.13;;;1.80;;
41263;SDS011;26998;48.714;9.414;2023-07-16T11:09:53;7.07;;;1.75;;
41263;SDS011;26998;48.714;9.414;2023-07-16T11:12:21;5.18;;;1.90;;
41263;SDS011;26998;48.714;9.414;2023-07-16T11:14:50;5.13;;;1.83;;
41263;SDS011;26998;48.714;9.414;2023-07-16T11:17:21;4.70;;;2.08;;
41263;SDS011;26998;48.714;9.414;2023-07-16T11:19:50;2.83;;;1.67;;
41263;SDS011;26998;48.714;9.414;2023-07-16T11:22:18;2.40;;;1.60;;
41263;SDS011;26998;48.714;9.414;2023-07-16T11:24:46;3.42;;;1.52;;
41263;SDS011;26998;48.714;9.414;2023-07-16T11:27:20;2.58;;;1.75;;
41263;SDS011;26998;48.714;9.414;2023-07-16T11:29:52;3.95;;;1.80;;
41263;SDS011;26998;48.714;9.414;2023-07-16T11:32:30;5.60;;;1.63;;
41263;SDS011;26998;48.714;9.414;2023-07-16T11:34:59;2.95;;;1.83;;
41263;SDS011;26998;48.714;9.414;2023-07-16T11:37:27;2.50;;;1.58;;
41263;SDS011;26998;48.714;9.414;2023-07-16T11:39:55;2.58;;;1.80;;
41263;SDS011;26998;48.714;9.414;2023-07-16T11:42:23;2.25;;;1.63;;
41263;SDS011;26998;48.714;9.414;2023-07-16T11:44:59;2.42;;;1.52;;
41263;SDS011;26998;48.714;9.414;2023-07-16T11:47:27;3.63;;;2.08;;
41263;SDS011;26998;48.714;9.414;2023-07-16T11:49:54;2.70;;;1.85;;
41263;SDS011;26998;48.714;9.414;2023-07-16T11:52:22;3.10;;;1.55;;
41263;SDS011;26998;48.714;9.414;2023-07-16T11:54:49;1.85;;;1.55;;
41263;SDS011;26998;48.714;9.414;2023-07-16T11:57:15;4.60;;;1.95;;
41263;SDS011;26998;48.714;9.414;2023-07-16T11:59:42;2.95;;;2.00;;
41263;SDS011;26998;48.714;9.414;2023-07-16T12:02:08;3.55;;;2.13;;
41263;SDS011;26998;48.714;9.414;2023-07-16T12:04:35;3.33;;;1.95;;
41263;SDS011;26998;48.714;9.414;2023-07-16T12:07:02;2.10;;;1.48;;
41263;SDS011;26998;48.714;9.414;2023-07-16T12:09:28;4.03;;;1.73;;
41263;SDS011;26998;48.714;9.414;2023-07-16T12:11:55;2.38;;;1.95;;
41263;SDS011;26998;48.714;9.414;2023-07-16T12:14:22;3.35;;;2.03;;
41263;SDS011;26998;48.714;9.414;2023-07-16T12:16:49;3.40;;;1.70;;
41263;SDS011;26998;48.714;9.414;2023-07-16T12:19:16;5.28;;;2.13;;
41263;SDS011;26998;48.714;9.414;2023-07-16T12:21:43;2.45;;;1.83;;
41263;SDS011;26998;48.714;9.414;2023-07-16T12:24:11;3.90;;;1.70;;
41263;SDS011;26998;48.714;9.414;2023-07-16T12:26:38;3.58;;;1.75;;
41263;SDS011;26998;48.714;9.414;2023-07-16T12:29:09;7.00;;;2.47;;
41263;SDS011;26998;48.714;9.414;2023-07-16T12:31:36;3.20;;;1.85;;
41263;SDS011;26998;48.714;9.414;2023-07-16T12:34:03;3.45;;;1.73;;
41263;SDS011;26998;48.714;9.414;2023-07-16T12:36:31;5.78;;;1.85;;
41263;SDS011;26998;48.714;9.414;2023-07-16T12:38:57;5.07;;;2.10;;
41263;SDS011;26998;48.714;9.414;2023-07-16T12:41:24;5.15;;;1.58;;
41263;SDS011;26998;48.714;9.414;2023-07-16T12:43:50;3.63;;;2.15;;
41263;SDS011;26998;48.714;9.414;2023-07-16T12:46:19;3.42;;;1.70;;
41263;SDS011;26998;48.714;9.414;2023-07-16T12:48:46;3.30;;;2.00;;
41263;SDS011;26998;48.714;9.414;2023-07-16T12:51:13;3.08;;;1.80;;
41263;SDS011;26998;48.714;9.414;2023-07-16T12:53:39;3.80;;;2.30;;
41263;SDS011;26998;48.714;9.414;2023-07-16T12:56:06;5.07;;;2.20;;
41263;SDS011;26998;48.714;9.414;2023-07-16T12:58:33;3.13;;;1.80;;
41263;SDS011;26998;48.714;9.414;2023-07-16T13:01:00;5.00;;;2.35;;
41263;SDS011;26998;48.714;9.414;2023-07-16T13:03:28;4.60;;;1.70;;
41263;SDS011;26998;48.714;9.414;2023-07-16T13:05:55;2.80;;;1.90;;
41263;SDS011;26998;48.714;9.414;2023-07-16T13:08:22;2.03;;;1.45;;
41263;SDS011;26998;48.714;9.414;2023-07-16T13:10:49;3.75;;;1.95;;
41263;SDS011;26998;48.714;9.414;2023-07-16T13:13:15;3.13;;;1.88;;
41263;SDS011;26998;48.714;9.414;2023-07-16T13:15:42;4.13;;;2.03;;
41263;SDS011;26998;48.714;9.414;2023-07-16T13:18:09;3.63;;;1.50;;
41263;SDS011;26998;48.714;9.414;2023-07-16T13:20:36;3.13;;;1.55;;
41263;SDS011;26998;48.714;9.414;2023-07-16T13:23:04;3.17;;;1.65;;
41263;SDS011;26998;48.714;9.414;2023-07-16T13:25:35;2.00;;;1.80;;
41263;SDS011;26998;48.714;9.414;2023-07-16T13:28:02;2.75;;;1.70;;
41263;SDS011;26998;48.714;9.414;2023-07-16T13:30:29;6.70;;;1.85;;
41263;SDS011;26998;48.714;9.414;2023-07-16T13:32:56;5.38;;;1.90;;
41263;SDS011;26998;48.714;9.414;2023-07-16T13:35:23;4.47;;;1.88;;
41263;SDS011;26998;48.714;9.414;2023-07-16T13:37:50;4.38;;;1.95;;
41263;SDS011;26998;48.714;9.414;2023-07-16T13:40:16;4.13;;;1.88;;
41263;SDS011;26998;48.714;9.414;2023-07-16T13:42:51;1.83;;;1.60;;
41263;SDS011;26998;48.714;9.414;2023-07-16T13:45:17;3.17;;;2.05;;
41263;SDS011;26998;48.714;9.414;2023-07-16T13:47:44;4.13;;;2.15;;
41263;SDS011;26998;48.714;9.414;2023-07-16T13:50:11;4.60;;;1.73;;
41263;SDS011;26998;48.714;9.414;2023-07-16T13:52:37;2.83;;;2.15;;
41263;SDS011;26998;48.714;9.414;2023-07-16T13:55:04;2.42;;;1.80;;
41263;SDS011;26998;48.714;9.414;2023-07-16T13:57:31;3.28;;;1.80;;
41263;SDS011;26998;48.714;9.414;2023-07-16T13:59:58;3.92;;;2.03;;
41263;SDS011;26998;48.714;9.414;2023-07-16T14:02:24;2.55;;;1.73;;
41263;SDS011;26998;48.714;9.414;2023-07-16T14:04:51;2.88;;;1.52;;
41263;SDS011;26998;48.714;9.414;2023-07-16T14:07:19;3.50;;;1.75;;
41263;SDS011;26998;48.714;9.414;2023-07-16T14:09:46;1.45;;;1.35;;
41263;SDS011;26998;48.714;9.414;2023-07-16T14:12:12;1.73;;;1.52;;
41263;SDS011;26998;48.714;9.414;2023-07-16T14:14:39;3.85;;;2.05;;
41263;SDS011;26998;48.714;9.414;2023-07-16T14:17:06;3.67;;;1.77;;
41263;SDS011;26998;48.714;9.414;2023-07-16T14:19:32;1.55;;;1.45;;
41263;SDS011;26998;48.714;9.414;2023-07-16T14:21:59;3.40;;;1.80;;
41263;SDS011;26998;48.714;9.414;2023-07-16T14:24:25;2.50;;;1.40;;
41263;SDS011;26998;48.714;9.414;2023-07-16T14:26:52;3.53;;;1.80;;
41263;SDS011;26998;48.714;9.414;2023-07-16T14:29:18;2.35;;;1.63;;
41263;SDS011;26998;48.714;9.414;2023-07-16T14:31:45;4.70;;;1.85;;
41263;SDS011;26998;48.714;9.414;2023-07-16T14:34:12;3.65;;;1.67;;
41263;SDS011;26998;48.714;9.414;2023-07-16T14:36:40;4.65;;;2.22;;
41263;SDS011;26998;48.714;9.414;2023-07-16T14:39:07;3.17;;;1.67;;
41263;SDS011;26998;48.714;9.414;2023-07-16T14:41:33;2.53;;;1.58;;
41263;SDS011;26998;48.714;9.414;2023-07-16T14:44:00;2.47;;;1.88;;
41263;SDS011;26998;48.714;9.414;2023-07-16T14:46:26;2.78;;;1.90;;
41263;SDS011;26998;48.714;9.414;2023-07-16T14:48:53;3.47;;;1.80;;
41263;SDS011;26998;48.714;9.414;2023-07-16T14:51:20;4.38;;;2.30;;
41263;SDS011;26998;48.714;9.414;2023-07-16T14:53:47;3.17;;;1.75;;
41263;SDS011;26998;48.714;9.414;2023-07-16T14:56:14;3.25;;;2.05;;
41263;SDS011;26998;48.714;9.414;2023-07-16T14:58:41;2.42;;;1.80;;
41263;SDS011;26998;48.714;9.414;2023-07-16T15:01:07;2.35;;;1.77;;